Blanc-Sablon, Canada
Current Conditions -  °F | °C
As of 8:00 PM on Sunday 21 Dec 2014 (Local Time) from CYBX Reporting Station
Clear Clear  
Wind Chill: 14°   Ceiling: Unl
Heat Index: 14°   Visibility: 15mi
Dew Point:   Wind: 3mph
Humidity: 79%   Direction: 30°NNE
Pressure: 30.31"   Gusts: NA
Location:  51.43°N, 57.12°W
Report Text: CYBX 212300Z 03003KT 330V070 15SM SKC M10/M13 A3031 RMK SLP268
Loading
Personal Weather Stations






























Interactive Weather Map New forecast layout! Learn more

10-Day Weather Forecast

Advertisements
Track Severe Weather on mobile